Aviation Digital Data Service (ADDS)

Output produced by METARs form (1911 UTC 18 June 2019)
found at http://www.aviationweather.gov/metar/data/
 
WBGB 181900Z 00000KT 9999 FEW016 SCT150 BKN300 25/24 Q1009
TAF WBGB 181700Z 1818/1918 32004KT 9999 FEW016
       
WMKB 181900Z 10004KT 7000 FEW024 SCT140 BKN280 27/25 Q1009 NOSIG
TAF WMKB 181700Z 1818/1918 07005KT 7000 FEW024 
     BECMG 1823/1901 20010KT 6000 FEW020
       
WMKE 181900Z AUTO 31003KT 250V340 //// // 24/23 Q1009
TAF WMKE 181700Z 1818/1918 VRB03KT 9999 FEW014 BKN260 
     TEMPO 1912/1914 4000 TSRA FEW004 FEW014CB
       
TAF WMAP 181700Z 1818/1918 VRB02KT 9999 FEW018 
     TEMPO 1900/1904 20006KT 4000 TSRA FEW017CB SCT024
       
WBKK 181900Z 10005KT 9999 FEW014 SCT140 BKN270 25/23 Q1008 NOSIG
TAF WBKK 181700Z 1818/1918 11005KT 9999 FEW014 
     BECMG 1901/1903 24009KT 
     PROB30 
     TEMPO 1906/1910 5000 TSRA FEW010 FEW016CB SCT040
       
WMKK 181900Z 07007KT 020V120 9000 FEW030 BKN140 BKN280 27/25 Q1008 NOSIG
TAF WMKK 181700Z 1818/2000 VRB02KT 9999 FEW030 
     BECMG 1904/1905 17006KT FEW017CB SCT024 
     BECMG 1911/1912 VRB02KT FEW025
       
WMKD 181900Z 36003KT 300V040 9999 SCT024 BKN280 25/24 Q1009 NOSIG
WBGG 181900Z VRB03KT 9999 SCT020 SCT150 BKN300 26/25 Q1010 NOSIG
TAF WBGG 181700Z 1818/1918 VRB03KT 9999 SCT020
       
WBKL 181900Z 00000KT 9999 FEW012 SCT140 BKN280 27/25 Q1009
TAF WBKL 181700Z 1818/1918 VRB03KT 9999 FEW015 FEW017CB 
     TEMPO 1818/1822 5000 TSRA FEW010 FEW016CB SCT030
       
WMKL 181900Z 00000KT 9999 FEW026 SCT140 BKN270 27/26 Q1008
TAF WMKL 181700Z 1818/1918 VRB03KT 9999 FEW026 
     TEMPO 1820/1900 5000 TSRA FEW010 FEW017CB 
     BECMG 1902/1904 19005KT FEW020 
     BECMG 1912/1914 VRB03KT FEW026
       
WMKM 181900Z 00000KT 9999 FEW028 SCT140 BKN270 27/25 Q1009
TAF WMKM 181700Z 1818/1918 VRB02KT 9999 FEW025 
     BECMG 1822/1823 FEW017CB 
     TEMPO 1903/1907 17005KT 4000 TSRA FEW016CB SCT027
       
WBGR 181900Z VRB01KT 9999 SCT016 BKN150 25/24 Q1009
TAF WBGR 181700Z 1818/1918 30004KT 9999 FEW016
       
WMKP 181900Z 00000KT 8000 FEW025 SCT140 BKN270 28/26 Q1009 NOSIG
TAF WMKP 181700Z 1818/1918 VRB03KT 9000 FEW025 
     BECMG 1900/1902 20007KT FEW020 
     BECMG 1912/1914 VRB03KT FEW025
       
TAF WMBT 181700Z 1818/1918 VRB03KT 9999 FEW024
       
WBKS 181900Z VRB03KT 9999 FEW016 BKN290 25/23 Q1008
TAF WBKS 181700Z 1818/1918 24005KT 9999 FEW016 
     TEMPO 1818/1822 3000 TSRA FEW015 FEW016CB SCT035
       
WBGS 181900Z VRB02KT 9999 FEW006 SCT018 BKN150 25/24 Q1009
TAF WBGS 181700Z 1818/1918 VRB03KT 9999 SCT018
       
WMSA 181900Z VRB02KT 9000 FEW005 BKN140 BKN270 28/25 Q1009
TAF WMSA 181700Z 1818/1918 VRB02KT 9999 FEW015 
     BECMG 1904/1905 16007KT FEW017CB 
     BECMG 1911/1912 VRB03KT FEW025
       
WMKA 181900Z VRB02KT 9999 FEW030 SCT140 BKN280 25/25 Q1009
TAF WMKA 181700Z 1818/1918 VRB03KT 9999 FEW030 
     TEMPO 1822/1902 5000 TSRA FEW010 FEW017CB 
     BECMG 1902/1904 23005KT FEW020 
     BECMG 1912/1914 FEW030
       
WMKI 181900Z 03004KT 350V060 8000 FEW005 SCT140 BKN280 28/25 Q1009
TAF WMKI 181700Z 1818/1918 VRB02KT 8000 FEW005 
     BECMG 1823/1901 20006KT 9999 FEW020
       
WMKJ 181900Z VRB02KT 9999 FEW023 BKN130 26/25 Q1009
TAF WMKJ 181700Z 1818/1918 VRB02KT 9999 FEW020 
     TEMPO 1903/1907 17005KT 4000 TSRA FEW010 FEW016CB SCT024
       
WMKC 181900Z 00000KT 9999 -RA FEW020 SCT140 OVC220 25/24 Q1009
TAF WMKC 181700Z 1818/1918 VRB03KT 9999 FEW018 BKN140 
     BECMG 1900/1901 21005KT 
     TEMPO 1909/1913 4000 TSRA FEW006 FEW017CB 
     BECMG 1913/1914 VRB03KT
       
WMKN 181900Z 23005KT 190V260 9999 -RA SCT022 BKN150 24/24 Q1009
TAF WMKN 181700Z 1818/1918 23005KT 9999 SCT018 BKN150 
     TEMPO 1818/1822 7000 -TSRA FEW010 FEW017CB 
     TEMPO 1912/1914 4000 TSRA FEW010 FEW017CB
       
WBKW 181900Z VRB02KT 9000 -TSRA FEW010 FEW016CB SCT027 BKN140 24/24 Q1009
TAF WBKW 181700Z 1818/1918 32005KT 9999 FEW016CB 
     TEMPO 1818/1822 5000 TSRA FEW015CB SCT025